Flight Track Log - Related Links

Times and Time Zones

All times are in EDT time to prevent confusion due to time zone crossing. See the RPA3496 flight status page for this flight to view local times or setup timezone preferences in your user account.


Time Position Orientation Groundspeed Altitude Reporting Facility
EDT Latitude Longitude Course Direction KTS MPH feet Rate Location/Type
Wed 12:12:08 PM 42.3667 -70.9833 160° South 145 167 900  Level KA90
Wed 12:12:36 PM 42.3667 -70.9500 90° East 146 168 1,600 2,090 Climbing KA90
Wed 12:13:37 PM 42.3833 -70.8667 75° East 222 255 4,000 2,063 Climbing KA90
Wed 12:14:00 PM 42.4315 -70.7871 118° Southeast  Level FlightAware Approximate
Wed 12:14:12 PM 42.3875 -70.8325 81° East 221 254 4,900  Level Boston Center
Wed 12:15:00 PM 42.3770 -70.7270 144° Southeast  Level FlightAware Approximate
Wed 12:15:16 PM 42.3714 -70.7300 102° East 276 318 7,800  Level Boston Center
Wed 12:16:00 PM 42.3058 -70.6923 164° South  Level FlightAware Approximate
Wed 12:16:17 PM 42.2764 -70.6753 157° South 307 353 10,800  Level Boston Center
Wed 12:17:00 PM 42.2364 -70.6515 160° South  Level FlightAware Approximate
Wed 12:17:18 PM 42.1875 -70.6353 162° South 329 379 13,300  Level Boston Center
Wed 12:18:19 PM 42.0922 -70.6347 180° South 347 399 15,900 2,262 Climbing Boston Center
Wed 12:19:20 PM 42.0019 -70.6742 198° South 344 396 17,900 1,984 Climbing Boston Center
Wed 12:20:23 PM 41.9075 -70.7169 199° South 358 412 20,000 1,561 Climbing Boston Center
Wed 12:21:23 PM 41.8103 -70.7650 200° South 372 428 21,100 1,190 Climbing Boston Center
Wed 12:22:24 PM 41.7103 -70.8428 210° Southwest 409 471 22,400 1,452 Climbing Boston Center
Wed 12:23:27 PM 41.5875 -70.9350 209° Southwest 422 486 24,100 1,452 Climbing Boston Center
Wed 12:24:28 PM 41.4989 -71.0417 222° Southwest 433 498 25,400 1,339 Climbing Boston Center
Wed 12:25:28 PM 41.4228 -71.1678 231° Southwest 435 501 26,800 1,016 Climbing Boston Center
Wed 12:26:32 PM 41.3528 -71.2781 230° Southwest 439 505 27,500 581 Climbing Boston Center
Wed 12:27:32 PM 41.2633 -71.4222 230° Southwest 454 522 28,000 248 Climbing Boston Center
Wed 12:28:33 PM 41.1825 -71.5536 231° Southwest 459 528 28,000  Level Boston Center
Wed 12:29:34 PM 41.1214 -71.7178 244° Southwest 461 531 28,000  Level Boston Center
Wed 12:30:35 PM 41.0697 -71.8706 246° West 460 529 28,000  Level Boston Center
Wed 12:31:39 PM 41.0183 -72.0242 246° West 460 529 28,000  Level Boston Center
Wed 12:32:39 PM 40.9603 -72.1983 246° West 460 529 28,000  Level Boston Center
Wed 12:33:39 PM 40.8961 -72.3414 239° Southwest 459 528 28,000  Level Boston Center
Wed 12:34:43 PM 40.8033 -72.4553 223° Southwest 453 521 28,000  Level Boston Center
Wed 12:35:44 PM 40.7197 -72.5569 223° Southwest 454 522 28,000 -347 Level Boston Center
Wed 12:36:44 PM 40.6275 -72.6706 223° Southwest 454 522 27,300 -1,742 Descending Boston Center
Wed 12:37:48 PM 40.5183 -72.8031 223° Southwest 446 513 24,400 -2,468 Descending Boston Center
Wed 12:38:48 PM 40.4314 -72.9097 223° Southwest 432 497 22,200 -2,182 Descending Boston Center
Wed 12:39:49 PM 40.3467 -73.0108 222° Southwest 415 478 20,000 -1,082 Descending Boston Center
Wed 12:40:50 PM 40.2633 -73.1111 223° Southwest 412 474 20,000  Level Boston Center
Wed 12:41:53 PM 40.1769 -73.2133 222° Southwest 410 472 20,000  Level Boston Center
Wed 12:42:53 PM 40.0950 -73.3133 223° Southwest 406 467 20,000  Level Boston Center
Wed 12:43:54 PM 40.0100 -73.4128 222° Southwest 407 468 20,000  Level Boston Center
Wed 12:44:58 PM 39.9294 -73.5094 223° Southwest 407 468 20,000  Level Boston Center
Wed 12:45:59 PM 39.8542 -73.6175 228° Southwest 405 466 20,000 -421 Level Boston Center
Wed 12:46:52 PM 39.7783 -73.7367 230° Southwest 403 464 19,200 -1,081 Descending Washington Center
Wed 12:47:50 PM 39.7092 -73.8464 231° Southwest 403 464 18,000 -1,373 Descending Washington Center
Wed 12:48:50 PM 39.6439 -73.9503 231° Southwest 398 458 16,500 -1,488 Descending Washington Center
Wed 12:49:51 PM 39.5786 -74.0542 231° Southwest 387 445 15,000 -1,279 Descending Washington Center
Wed 12:50:52 PM 39.5258 -74.1603 237° Southwest 375 432 13,900 -555 Descending Washington Center
Wed 12:51:50 PM 39.5250 -74.2894 270° West 347 399 13,900 -101 Level Washington Center
Wed 12:52:51 PM 39.5286 -74.4158 272° West 353 406 13,700 -1,158 Descending Washington Center
Wed 12:54:41 PM 39.5333 -74.6333 272° West 302 348 10,600 -1,624 Descending Philadelphia TRACON
Wed 12:55:41 PM 39.5333 -74.7333 270° West 281 323 9,100 -1,148 Descending Philadelphia TRACON
Wed 12:56:36 PM 39.5333 -74.8333 270° West 279 321 8,400 -1,043 Descending Philadelphia TRACON
Wed 12:57:36 PM 39.5333 -74.9167 270° West 273 314 7,100 -1,200 Descending Philadelphia TRACON
Wed 12:58:36 PM 39.5500 -75.0167 282° West 268 308 6,000 -550 Descending Philadelphia TRACON
Wed 12:59:36 PM 39.5500 -75.1167 270° West 274 315 6,000  Level Philadelphia TRACON
Wed 01:00:36 PM 39.5667 -75.2167 282° West 281 323 6,000  Level Philadelphia TRACON
Wed 01:01:42 PM 39.6333 -75.2833 322° Northwest 284 327 6,000  Level Philadelphia TRACON
Wed 01:02:42 PM 39.7000 -75.3333 330° Northwest 282 325 6,000  Level Philadelphia TRACON
Wed 01:03:48 PM 39.7333 -75.4167 298° West 182 209 6,000  Level Philadelphia TRACON
Wed 01:04:42 PM 39.7167 -75.4667 247° West 192 221 6,000 -52 Level Philadelphia TRACON
Wed 01:05:43 PM 39.7000 -75.5500 255° West 196 226 5,900 -700 Descending Philadelphia TRACON
Wed 01:06:42 PM 39.6833 -75.6167 252° West 195 224 4,600 -958 Descending Philadelphia TRACON
Wed 01:07:42 PM 39.7167 -75.6500 322° Northwest 206 237 4,000 -300 Descending Philadelphia TRACON
Wed 01:08:42 PM 39.7667 -75.6333 14° North 201 231 4,000  Level Philadelphia TRACON
Wed 01:09:42 PM 39.8000 -75.5833 49° Northeast 199 229 4,000 -149 Level Philadelphia TRACON
Wed 01:10:43 PM 39.8167 -75.5167 72° East 192 221 3,700 -645 Descending Philadelphia TRACON
Wed 01:11:43 PM 39.8333 -75.4500 72° East 188 216 2,700 -1,000 Descending Philadelphia TRACON
Wed 01:12:43 PM 39.8333 -75.3833 90° East 180 207 1,700 -850 Descending Philadelphia TRACON
Wed 01:13:43 PM 39.8500 -75.3333 67° East 126 145 1,000 -700 Descending Philadelphia TRACON
Wed 01:14:43 PM 39.8667 -75.2833 67° East 129 148 300 -700 Descending Philadelphia TRACON
Wed 01:16:00 PM 39.8667 -75.2333 57° Northeast  Level FlightAware Approximate
Wed 01:23:00 PM 39.8722 -75.2409 57° Northeast  Level Estimated

Login

Don't have an account? Register now (free) for customized features, flight alerts, and more!